Time;durP1;ratioP1;P1;durP2;ratioP2;P2;SDS_P1;SDS_P2;PMS_P1;PMS_P2;Temp;Humidity;BMP_temperature;BMP_pressure;BME280_temperature;BME280_humidity;BME280_pressure;Samples;Min_cycle;Max_cycle;Signal;HPM_P1;HPM_P2
2021/09/21 05:01:10;;;;;;;9.57;7.63;;;;;;;12.78;88.31;95200.56;5749733;23;20108;-79
2021/09/21 05:03:36;;;;;;;9.25;8.35;;;;;;;12.83;88.62;95195.63;4888861;29;20035;-79
2021/09/21 05:06:01;;;;;;;8.32;7.68;;;;;;;12.89;88.05;95194.91;4913364;29;20087;-78
2021/09/21 05:08:26;;;;;;;8.55;7.90;;;;;;;12.69;88.99;95202.41;4893323;29;20031;-80
2021/09/21 05:10:52;;;;;;;19.60;8.60;;;;;;;12.63;89.06;95203.94;4895349;29;20028;-80
2021/09/21 05:13:17;;;;;;;9.10;7.97;;;;;;;12.66;89.25;95210.56;4893757;29;20035;-80
2021/09/21 05:15:45;;;;;;;61.22;9.98;;;;;;;12.67;89.27;95213.00;4898157;29;20035;-90
2021/09/21 05:18:10;;;;;;;8.73;8.05;;;;;;;12.75;88.75;95214.69;4897357;29;20028;-80
2021/09/21 05:20:36;;;;;;;8.88;7.07;;;;;;;12.98;88.11;95209.44;4882100;29;20035;-79
2021/09/21 05:23:02;;;;;;;8.13;7.43;;;;;;;14.68;81.59;95208.72;4897677;29;20489;-78
2021/09/21 05:25:27;;;;;;;8.95;8.20;;;;;;;15.60;76.37;95214.53;4897102;29;20118;-78
2021/09/21 05:27:53;;;;;;;8.88;8.02;;;;;;;17.30;69.94;95215.69;4898185;29;20032;-81
2021/09/21 05:30:19;;;;;;;10.85;7.82;;;;;;;17.23;68.43;95217.50;4897046;29;20122;-82
2021/09/21 05:32:45;;;;;;;7.25;6.57;;;;;;;15.97;72.66;95220.25;4930550;29;20122;-83
2021/09/21 05:35:11;;;;;;;7.57;6.88;;;;;;;15.67;73.97;95215.34;4897156;29;20106;-85
2021/09/21 05:37:36;;;;;;;6.95;6.45;;;;;;;15.71;74.04;95207.91;4915891;29;20553;-77
2021/09/21 05:40:02;;;;;;;8.43;7.07;;;;;;;15.92;74.14;95214.84;4916493;29;20031;-77
2021/09/21 05:42:28;;;;;;;6.75;6.25;;;;;;;16.57;71.49;95224.59;4916036;29;20027;-79
2021/09/21 05:44:53;;;;;;;6.35;5.88;;;;;;;15.97;73.86;95231.50;4916517;29;20038;-85
2021/09/21 05:47:19;;;;;;;6.70;6.18;;;;;;;15.65;74.03;95222.56;4907288;29;20024;-83
2021/09/21 05:49:44;;;;;;;7.18;6.60;;;;;;;14.90;75.89;95206.88;4917321;29;20071;-80
2021/09/21 05:52:10;;;;;;;7.18;6.57;;;;;;;14.99;77.37;95241.47;4931132;29;20034;-79
2021/09/21 05:54:35;;;;;;;8.02;7.25;;;;;;;14.81;78.07;95238.50;4918635;29;20029;-81
2021/09/21 05:57:01;;;;;;;34.60;8.95;;;;;;;14.73;78.57;95239.47;4898929;29;20028;-81
2021/09/21 05:59:26;;;;;;;6.82;6.22;;;;;;;14.89;77.91;95241.78;4942997;29;20046;-82
2021/09/21 06:01:52;;;;;;;32.28;8.43;;;;;;;14.77;78.21;95227.63;4893290;29;20166;-82
2021/09/21 06:04:17;;;;;;;7.60;6.80;;;;;;;15.08;77.48;95250.75;4903574;29;20035;-80
2021/09/21 06:06:43;;;;;;;7.85;7.15;;;;;;;15.14;77.24;95249.97;4904590;29;20024;-80
2021/09/21 06:09:08;;;;;;;86.97;9.75;;;;;;;15.03;77.80;95243.47;4915887;29;20023;-79
2021/09/21 06:11:34;;;;;;;6.95;6.38;;;;;;;15.38;76.99;95259.16;4920212;29;20027;-83
2021/09/21 06:14:03;;;;;;;6.47;5.97;;;;;;;15.89;75.14;95250.00;4934269;28;20035;-80
2021/09/21 06:16:29;;;;;;;6.50;5.93;;;;;;;16.33;71.39;95239.03;4920484;29;20046;-80
2021/09/21 06:18:54;;;;;;;6.13;5.63;;;;;;;18.24;66.64;95256.03;4919682;29;20437;-82
2021/09/21 06:21:20;;;;;;;5.53;5.03;;;;;;;25.15;45.55;95242.88;4919453;29;20532;-83
2021/09/21 06:23:46;;;;;;;166.00;10.32;;;;;;;24.36;45.59;95240.03;4919175;29;20031;-84
2021/09/21 06:26:11;;;;;;;5.00;4.60;;;;;;;24.66;45.46;95250.91;4898054;29;20481;-83
2021/09/21 06:28:37;;;;;;;743.92;40.88;;;;;;;23.87;46.43;95248.97;4917945;29;20027;-80
2021/09/21 06:31:03;;;;;;;5.18;4.65;;;;;;;24.40;46.22;95251.72;4933609;29;20058;-80
2021/09/21 06:33:29;;;;;;;373.05;19.10;;;;;;;22.86;48.78;95250.13;4952495;29;20027;-85
2021/09/21 06:35:54;;;;;;;339.42;17.35;;;;;;;19.76;55.20;95245.91;4917200;29;20420;-82
2021/09/21 06:38:20;;;;;;;4.82;4.45;;;;;;;20.06;57.20;95256.50;4919181;29;20034;-82
2021/09/21 06:40:45;;;;;;;4.88;4.40;;;;;;;21.60;53.00;95263.47;4919596;29;20039;-78
2021/09/21 06:43:10;;;;;;;5.15;4.75;;;;;;;19.83;56.86;95253.72;4949853;29;20448;-79
2021/09/21 06:45:36;;;;;;;110.35;12.88;;;;;;;18.67;60.47;95258.03;4935136;29;20030;-80
2021/09/21 06:48:01;;;;;;;5.03;4.63;;;;;;;18.64;61.66;95272.38;4917056;29;20047;-82
2021/09/21 06:50:27;;;;;;;5.70;5.22;;;;;;;19.48;59.47;95265.84;4935230;29;20031;-82
2021/09/21 06:52:52;;;;;;;30.65;6.03;;;;;;;19.59;58.87;95273.00;4917101;29;20062;-82
2021/09/21 06:55:18;;;;;;;5.95;5.00;;;;;;;19.29;59.62;95270.25;4934979;29;20031;-80
2021/09/21 06:57:51;;;;;;;35.17;6.13;;;;;;;19.27;59.80;95280.97;4916881;29;20039;-79
2021/09/21 07:00:16;;;;;;;105.20;9.63;;;;;;;19.33;59.84;95281.91;4934292;29;20031;-83
2021/09/21 07:02:46;;;;;;;54.72;7.55;;;;;;;18.26;62.84;95274.19;4915029;29;20050;-85
2021/09/21 07:05:11;;;;;;;;;;;;;;;18.32;63.15;95297.78;4929699;29;20425;-82
2021/09/21 07:07:43;;;;;;;6.53;6.03;;;;;;;17.69;64.78;95291.56;4932165;29;19914;-82
2021/09/21 07:10:08;;;;;;;32.78;7.97;;;;;;;17.20;67.20;95307.75;4915407;29;20103;-81
2021/09/21 07:12:34;;;;;;;6.57;5.97;;;;;;;17.12;67.90;95299.28;4900233;29;20143;-84
2021/09/21 07:14:59;;;;;;;28.60;7.63;;;;;;;17.04;68.26;95310.78;4932736;29;20500;-86
2021/09/21 07:17:25;;;;;;;6.88;6.13;;;;;;;17.10;68.62;95312.56;4914535;29;20036;-81
2021/09/21 07:19:50;;;;;;;6.93;6.30;;;;;;;16.76;70.29;95323.22;4899472;29;20481;-82
2021/09/21 07:22:16;;;;;;;7.72;6.18;;;;;;;16.75;69.56;95325.03;4914231;29;20027;-84
2021/09/21 07:24:41;;;;;;;83.68;10.07;;;;;;;16.34;70.63;95291.13;4919852;29;20038;-81
2021/09/21 07:27:06;;;;;;;24.00;6.40;;;;;;;16.24;71.32;95309.00;4909566;29;20502;-79
2021/09/21 07:29:32;;;;;;;6.35;5.85;;;;;;;16.35;70.41;95331.13;4912574;29;20032;-82
2021/09/21 07:31:57;;;;;;;6.47;5.88;;;;;;;16.15;71.35;95328.44;4910574;29;20032;-83
2021/09/21 07:34:23;;;;;;;6.43;6.00;;;;;;;16.11;71.86;95342.94;4917366;29;20020;-77
2021/09/21 07:36:52;;;;;;;6.40;5.82;;;;;;;16.22;71.62;95347.59;4911011;29;20039;-81
2021/09/21 07:39:18;;;;;;;6.67;6.17;;;;;;;16.14;72.07;95353.00;4912706;29;20024;-82
2021/09/21 07:41:44;;;;;;;7.38;6.88;;;;;;;16.28;71.70;95349.41;4929276;29;20417;-83
2021/09/21 07:44:09;;;;;;;7.07;6.40;;;;;;;16.26;71.80;95346.19;4891604;29;20486;-85
2021/09/21 07:46:35;;;;;;;7.20;6.53;;;;;;;16.41;70.87;95342.66;4899642;29;20639;-83
2021/09/21 07:49:00;;;;;;;13.02;6.47;;;;;;;16.26;69.52;95346.19;4892291;29;20028;-83
2021/09/21 07:51:26;;;;;;;8.27;6.57;;;;;;;16.53;69.67;95341.06;4896299;29;20035;-83
2021/09/21 07:53:51;;;;;;;8.30;7.70;;;;;;;16.43;70.42;95335.41;4910375;29;20066;-84
2021/09/21 07:56:17;;;;;;;120.28;12.07;;;;;;;16.53;69.32;95359.38;4884074;29;20506;-83
2021/09/21 07:58:42;;;;;;;7.70;7.00;;;;;;;16.49;70.66;95365.97;4894611;29;20087;-82
2021/09/21 08:01:08;;;;;;;7.22;5.97;;;;;;;16.76;68.12;95362.47;4913210;29;20558;-81
2021/09/21 08:03:33;;;;;;;7.18;6.68;;;;;;;16.79;68.80;95351.63;4902120;29;20036;-83
2021/09/21 08:05:58;;;;;;;6.78;6.35;;;;;;;16.89;67.30;95341.53;4900789;29;20425;-83
2021/09/21 08:08:24;;;;;;;7.55;6.95;;;;;;;17.07;67.00;95354.06;4917934;29;20084;-81
2021/09/21 08:10:49;;;;;;;6.50;6.00;;;;;;;17.52;65.90;95357.66;4921123;29;20123;-82
2021/09/21 08:13:16;;;;;;;6.20;5.75;;;;;;;17.92;63.75;95360.03;4891697;29;20042;-81
2021/09/21 08:15:41;;;;;;;6.07;5.60;;;;;;;18.09;63.17;95368.25;4907604;29;20027;-82
2021/09/21 08:18:07;;;;;;;5.63;5.22;;;;;;;17.98;61.92;95347.13;4920685;29;20445;-78
2021/09/21 08:20:33;;;;;;;6.00;5.60;;;;;;;17.88;63.20;95356.22;4941622;29;20031;-76
2021/09/21 08:22:58;;;;;;;15.45;5.85;;;;;;;17.86;62.58;95357.44;4890129;29;20028;-79
2021/09/21 08:25:24;;;;;;;11.52;5.72;;;;;;;18.10;60.92;95371.69;4909179;29;20034;-86
2021/09/21 08:27:49;;;;;;;28.40;5.22;;;;;;;17.88;61.81;95365.91;4941603;29;20031;-85
2021/09/21 08:30:15;;;;;;;5.50;4.90;;;;;;;18.42;59.92;95361.09;4914345;29;20035;-78
2021/09/21 08:32:40;;;;;;;5.50;4.80;;;;;;;18.15;59.19;95354.31;4928795;29;20466;-81
2021/09/21 08:35:06;;;;;;;5.93;5.35;;;;;;;18.31;60.24;95343.38;4923104;29;20039;-82
2021/09/21 08:37:32;;;;;;;44.10;5.90;;;;;;;18.48;58.01;95358.63;4909996;29;20501;-80
2021/09/21 08:39:57;;;;;;;74.88;6.95;;;;;;;18.81;57.29;95365.34;4905352;29;20096;-82
2021/09/21 08:42:23;;;;;;;96.88;8.50;;;;;;;18.86;58.90;95362.88;4889070;29;20031;-87
2021/09/21 08:44:49;;;;;;;6.35;5.85;;;;;;;19.21;57.00;95342.22;4897404;29;20505;-79
2021/09/21 08:47:14;;;;;;;6.00;5.28;;;;;;;19.28;57.41;95356.13;4901253;29;20040;-82
2021/09/21 08:49:40;;;;;;;5.53;4.50;;;;;;;18.87;55.53;95353.19;4897262;29;20031;-84
2021/09/21 08:52:05;;;;;;;6.78;6.10;;;;;;;19.18;56.49;95344.47;4916084;29;20047;-84
2021/09/21 08:54:31;;;;;;;74.30;7.47;;;;;;;19.48;55.63;95340.22;4949578;29;20038;-85
2021/09/21 08:56:58;;;;;;;37.28;6.70;;;;;;;19.36;55.95;95349.81;4932666;29;20035;-85
2021/09/21 08:59:28;;;;;;;4.70;4.40;;;;;;;19.44;55.70;95336.41;4902007;29;20031;-85
2021/09/21 09:01:53;;;;;;;4.68;4.00;;;;;;;20.27;52.92;95334.97;4900427;29;20052;-86
2021/09/21 09:04:19;;;;;;;4.80;4.40;;;;;;;19.99;52.52;95343.34;4880571;29;20036;-85
2021/09/21 09:06:49;;;;;;;5.18;4.20;;;;;;;19.94;51.17;95334.50;4909290;29;20024;-82
2021/09/21 09:09:16;;;;;;;4.45;4.15;;;;;;;20.03;53.02;95333.22;4895707;29;20035;-83
2021/09/21 09:11:42;;;;;;;4.00;3.70;;;;;;;19.56;51.83;95333.88;4878513;29;20028;-81
2021/09/21 09:14:31;;;;;;;4.18;3.70;;;;;;;19.54;51.02;95342.00;4879439;29;20029;-85
2021/09/21 09:17:12;;;;;;;4.70;4.40;;;;;;;19.99;51.53;95343.34;4885637;29;20063;-85
2021/09/21 09:19:38;;;;;;;4.60;4.20;;;;;;;20.40;50.47;95344.53;4896608;29;20032;-83
2021/09/21 09:22:18;;;;;;;4.85;4.40;;;;;;;20.47;51.16;95335.53;4898444;29;20051;-83
2021/09/21 09:24:55;;;;;;;4.70;4.30;;;;;;;20.56;50.17;95343.09;4898021;29;20042;-86
2021/09/21 09:27:22;;;;;;;33.72;5.75;;;;;;;20.22;49.57;95340.06;4897147;29;20126;-83
2021/09/21 09:30:00;;;;;;;4.30;4.00;;;;;;;20.71;49.20;95339.03;4902176;29;20049;-87
2021/09/21 09:32:26;;;;;;;5.30;3.30;;;;;;;20.77;46.96;95334.72;4902428;29;20050;-85
2021/09/21 09:34:51;;;;;;;4.55;3.80;;;;;;;20.91;47.05;95329.03;4887060;29;20912;-86
2021/09/21 09:37:18;;;;;;;8.23;4.85;;;;;;;20.91;47.02;95336.94;4900265;29;20059;-85
2021/09/21 09:39:45;;;;;;;4.03;3.72;;;;;;;21.43;46.80;95345.09;4886848;29;20027;-85
2021/09/21 09:42:12;;;;;;;4.78;4.43;;;;;;;21.45;48.04;95348.28;4902189;29;20030;-83
2021/09/21 09:44:38;;;;;;;3.50;3.30;;;;;;;21.68;45.36;95352.78;4901775;29;20019;-80
2021/09/21 09:47:05;;;;;;;64.55;5.47;;;;;;;21.15;47.49;95356.28;4918145;29;20115;-80
2021/09/21 09:49:41;;;;;;;4.45;3.30;;;;;;;21.56;46.55;95347.50;4901017;29;20027;-78
2021/09/21 09:52:11;;;;;;;127.55;7.97;;;;;;;21.37;46.35;95346.81;4901209;29;20043;-83
2021/09/21 09:54:38;;;;;;;598.90;36.22;;;;;;;20.98;45.32;95352.66;4885119;29;20130;-83
2021/09/21 09:57:08;;;;;;;3.75;3.30;;;;;;;21.49;46.12;95339.69;4898457;29;20041;-80
2021/09/21 09:59:33;;;;;;;;;;;;;;;21.36;46.48;95352.28;4867204;29;20028;-81
2021/09/21 10:01:59;;;;;;;4.63;3.42;;;;;;;21.32;47.31;95351.94;4903457;29;19923;-84
2021/09/21 10:04:24;;;;;;;5.47;4.97;;;;;;;21.32;45.84;95340.63;4898591;29;20036;-82
2021/09/21 10:06:50;;;;;;;97.00;7.43;;;;;;;21.19;46.78;95340.81;4896501;29;20286;-83
2021/09/21 10:09:15;;;;;;;58.60;6.10;;;;;;;21.41;47.17;95342.69;4898797;29;20024;-81
2021/09/21 10:11:43;;;;;;;15.75;3.58;;;;;;;21.49;47.45;95339.69;4896413;29;20039;-85
2021/09/21 10:14:08;;;;;;;240.70;13.95;;;;;;;21.36;46.84;95316.19;4914256;29;20024;-82
2021/09/21 10:16:34;;;;;;;166.68;10.75;;;;;;;21.55;47.29;95354.59;4901742;29;20035;-82
2021/09/21 10:19:00;;;;;;;20.20;4.85;;;;;;;21.26;47.71;95349.41;4932242;29;20024;-83
2021/09/21 10:21:45;;;;;;;165.95;9.52;;;;;;;21.49;47.95;95334.44;4933058;29;20063;-79
2021/09/21 10:24:11;;;;;;;4.53;4.22;;;;;;;21.48;48.09;95343.34;4915883;29;20020;-82
2021/09/21 10:26:41;;;;;;;84.25;6.13;;;;;;;20.93;48.95;95340.13;4901691;29;20040;-81
2021/09/21 10:29:07;;;;;;;50.63;5.47;;;;;;;19.90;50.42;95336.78;4899612;29;20035;-83
2021/09/21 10:31:34;;;;;;;5.20;3.85;;;;;;;20.57;49.74;95353.44;4916526;29;20572;-85
2021/09/21 10:34:13;;;;;;;82.50;6.53;;;;;;;20.47;49.94;95351.31;4931776;29;20494;-85
2021/09/21 10:36:50;;;;;;;329.92;15.55;;;;;;;20.59;50.60;95348.72;4900003;29;20068;-83
2021/09/21 10:39:16;;;;;;;97.18;8.10;;;;;;;20.82;51.68;95348.81;4914831;29;20042;-81
2021/09/21 10:41:58;;;;;;;5.53;5.03;;;;;;;20.37;51.78;95344.97;4928218;29;20080;-82
2021/09/21 10:44:25;;;;;;;163.57;10.43;;;;;;;19.92;52.08;95352.34;4917708;29;20020;-82
2021/09/21 10:46:58;;;;;;;433.00;21.08;;;;;;;19.42;54.45;95346.34;4929357;29;20102;-81
2021/09/21 10:49:38;;;;;;;52.65;6.28;;;;;;;20.22;53.45;95326.91;4931253;29;20028;-85
2021/09/21 10:52:04;;;;;;;169.02;11.32;;;;;;;20.89;53.64;95346.91;4915505;29;20031;-84
2021/09/21 10:54:30;;;;;;;367.73;19.45;;;;;;;20.55;51.93;95352.06;4930605;29;20577;-84
2021/09/21 10:57:25;;;;;;;87.22;7.65;;;;;;;20.17;53.44;95344.34;4931819;29;20043;-81
2021/09/21 10:59:53;;;;;;;443.67;22.58;;;;;;;20.04;51.82;95350.56;4919699;29;20043;-85
2021/09/21 11:02:19;;;;;;;123.82;8.43;;;;;;;20.12;54.16;95346.84;4931044;29;20506;-84
2021/09/21 11:04:45;;;;;;;446.77;20.13;;;;;;;20.16;52.61;95348.03;4916112;29;20054;-86
2021/09/21 11:07:12;;;;;;;245.68;13.73;;;;;;;19.75;54.34;95341.56;4931685;29;20075;-80
2021/09/21 11:09:38;;;;;;;50.63;5.63;;;;;;;19.65;54.38;95338.63;4915977;29;20028;-85
2021/09/21 11:12:10;;;;;;;990.17;53.20;;;;;;;19.81;54.64;95329.41;4929900;29;20028;-86
2021/09/21 11:14:37;;;;;;;4.43;4.05;;;;;;;19.94;53.76;95326.59;4931536;29;20051;-85
2021/09/21 11:17:04;;;;;;;76.28;7.57;;;;;;;20.10;53.52;95344.44;4914328;29;20035;-84
2021/09/21 11:19:30;;;;;;;34.20;4.07;;;;;;;20.04;53.33;95334.78;4915292;29;20086;-83
2021/09/21 11:22:00;;;;;;;167.90;11.63;;;;;;;19.86;52.80;95325.09;4914962;29;20023;-85
2021/09/21 11:24:26;;;;;;;4.57;3.95;;;;;;;19.90;55.96;95307.06;4914584;29;20031;-84
2021/09/21 11:27:03;;;;;;;167.30;9.43;;;;;;;20.27;53.43;95297.31;4915444;29;20023;-80
2021/09/21 11:29:28;;;;;;;62.58;8.07;;;;;;;19.90;54.71;95325.47;4913626;29;20035;-84
2021/09/21 11:31:54;;;;;;;142.90;8.93;;;;;;;19.59;54.35;95325.56;4914906;29;20032;-81
2021/09/21 11:34:21;;;;;;;21.30;4.53;;;;;;;20.12;54.25;95326.63;4914308;29;20059;-84
2021/09/21 11:36:49;;;;;;;60.40;6.63;;;;;;;19.65;54.84;95311.56;4915401;29;20134;-80
2021/09/21 11:39:16;;;;;;;51.25;4.65;;;;;;;19.85;52.59;95320.84;4915768;29;20039;-82
2021/09/21 11:41:42;;;;;;;294.95;17.15;;;;;;;19.64;54.36;95304.69;4898541;29;20040;-84
2021/09/21 11:44:08;;;;;;;762.33;33.85;;;;;;;19.78;53.34;95311.41;4915937;29;20120;-85
2021/09/21 11:46:35;;;;;;;2.50;2.30;;;;;;;19.43;53.80;95298.81;4898607;29;20035;-80
2021/09/21 11:49:01;;;;;;;2.78;2.35;;;;;;;19.49;54.35;95304.25;4929445;29;20023;-82
2021/09/21 11:51:28;;;;;;;2.85;2.60;;;;;;;19.94;52.59;95311.63;4896720;29;20062;-84
2021/09/21 11:53:56;;;;;;;6.80;2.95;;;;;;;19.69;53.71;95297.75;4915632;29;20034;-81
2021/09/21 11:56:22;;;;;;;72.75;6.50;;;;;;;19.85;52.67;95289.28;4898589;29;20118;-83
2021/09/21 11:58:47;;;;;;;309.52;16.38;;;;;;;19.52;53.42;95306.44;4898902;29;20032;-84
2021/09/21 12:01:13;;;;;;;354.38;16.58;;;;;;;19.23;53.54;95307.88;4898672;29;20421;-83
2021/09/21 12:03:38;;;;;;;389.10;20.02;;;;;;;19.02;53.93;95269.66;4913904;29;20152;-86
2021/09/21 12:06:05;;;;;;;175.82;11.27;;;;;;;19.49;55.73;95296.38;4909659;29;20399;-74
2021/09/21 12:08:32;;;;;;;281.75;14.07;;;;;;;19.48;53.77;95292.13;4905753;29;20122;-80
2021/09/21 12:11:16;;;;;;;357.35;20.63;;;;;;;19.70;53.27;95286.22;4914095;29;20044;-77
2021/09/21 12:13:46;;;;;;;3.00;2.80;;;;;;;19.64;52.80;95291.56;4929981;29;20039;-85
2021/09/21 12:16:11;;;;;;;75.60;5.63;;;;;;;19.68;54.04;95261.19;4898288;29;20024;-80
2021/09/21 12:18:37;;;;;;;76.78;6.38;;;;;;;19.58;53.82;95261.72;4898887;29;20426;-78
2021/09/21 12:21:08;;;;;;;33.67;3.90;;;;;;;19.14;53.29;95270.56;4913164;29;20103;-87
2021/09/21 12:23:36;;;;;;;34.22;3.67;;;;;;;19.23;54.31;95266.63;4915076;29;20036;-88
2021/09/21 12:26:02;;;;;;;181.63;10.73;;;;;;;19.20;54.06;95263.66;4897028;29;20067;-83
2021/09/21 12:28:32;;;;;;;4.45;3.33;;;;;;;19.29;55.86;95246.59;4914218;29;20095;-84
2021/09/21 12:30:59;;;;;;;93.07;6.90;;;;;;;19.09;55.22;95243.34;4913915;29;20059;-86
2021/09/21 12:33:24;;;;;;;3.40;3.20;;;;;;;18.92;55.65;95246.53;4913547;29;20035;-86
2021/09/21 12:35:52;;;;;;;255.90;13.23;;;;;;;19.39;54.39;95252.16;4908562;29;20088;-82
2021/09/21 12:38:18;;;;;;;1001.70;59.72;;;;;;;19.45;53.83;95249.50;4910548;29;20040;-84
2021/09/21 12:40:51;;;;;;;3.63;3.30;;;;;;;19.50;54.58;95227.81;4912251;29;20083;-86
2021/09/21 12:43:18;;;;;;;41.15;4.72;;;;;;;19.65;55.50;95240.59;4910052;29;20450;-82
2021/09/21 12:45:44;;;;;;;325.05;15.57;;;;;;;19.79;55.02;95248.13;4912038;29;20082;-81
2021/09/21 12:48:10;;;;;;;222.20;10.90;;;;;;;19.52;54.89;95236.31;4895316;29;20036;-84
2021/09/21 12:50:38;;;;;;;2.72;2.53;;;;;;;19.85;53.23;95233.28;4895236;29;20040;-90
2021/09/21 12:53:04;;;;;;;137.33;8.20;;;;;;;19.23;53.32;95237.75;4895859;29;20046;-83
2021/09/21 12:55:32;;;;;;;17.58;2.80;;;;;;;19.71;53.08;95242.34;4879192;29;20036;-86
2021/09/21 12:57:58;;;;;;;19.15;3.45;;;;;;;19.32;53.71;95231.22;4895526;29;20028;-78
2021/09/21 13:00:23;;;;;;;3.05;2.47;;;;;;;19.57;53.49;95238.25;4909372;29;20497;-88
2021/09/21 13:02:50;;;;;;;103.18;6.47;;;;;;;19.73;54.26;95235.03;4895617;29;20139;-88
2021/09/21 13:05:16;;;;;;;907.50;44.97;;;;;;;19.85;53.30;95239.34;4899026;29;20087;-82
2021/09/21 13:07:42;;;;;;;2.30;2.10;;;;;;;19.45;53.06;95251.31;4897767;29;20023;-86
2021/09/21 13:10:08;;;;;;;3.30;2.50;;;;;;;19.20;53.76;95247.91;4898446;29;20024;-83
2021/09/21 13:12:33;;;;;;;202.27;10.40;;;;;;;19.46;52.88;95237.97;4912272;29;20487;-85
2021/09/21 13:14:59;;;;;;;358.33;17.02;;;;;;;19.41;53.23;95223.88;4914929;29;20028;-88
2021/09/21 13:17:24;;;;;;;56.72;3.92;;;;;;;19.22;53.03;95216.97;4897142;29;20498;-87
2021/09/21 13:19:50;;;;;;;7.70;2.47;;;;;;;19.52;52.66;95214.47;4913830;29;20482;-81
2021/09/21 13:22:15;;;;;;;151.55;7.28;;;;;;;19.73;52.00;95237.66;4896875;29;20036;-78
2021/09/21 13:24:42;;;;;;;2.67;2.47;;;;;;;19.79;50.84;95242.03;4914585;29;20055;-87
2021/09/21 13:27:07;;;;;;;111.72;6.57;;;;;;;19.56;52.98;95242.72;4913555;29;20027;-86
2021/09/21 13:29:33;;;;;;;2.17;1.98;;;;;;;19.44;52.22;95224.25;4913535;29;20032;-89
2021/09/21 13:31:58;;;;;;;15.80;3.10;;;;;;;19.32;52.16;95225.97;4898221;29;20028;-80
2021/09/21 13:34:24;;;;;;;2.25;1.60;;;;;;;19.40;52.45;95235.41;4896173;29;20102;-85
2021/09/21 13:36:49;;;;;;;1.90;1.55;;;;;;;19.51;51.37;95232.06;4929520;29;20048;-81
2021/09/21 13:39:15;;;;;;;4.15;1.65;;;;;;;19.11;52.24;95222.91;4912334;29;20041;-86
2021/09/21 13:41:40;;;;;;;1.35;1.25;;;;;;;19.26;52.37;95218.16;4913355;29;20046;-78
2021/09/21 13:44:06;;;;;;;224.60;11.05;;;;;;;19.26;52.61;95221.59;4913133;29;20039;-86
2021/09/21 13:46:31;;;;;;;830.65;35.22;;;;;;;19.28;52.05;95214.28;4928940;29;20035;-79
2021/09/21 13:48:57;;;;;;;588.40;23.98;;;;;;;19.27;52.02;95212.66;4913437;29;20477;-78
2021/09/21 13:51:23;;;;;;;337.42;16.92;;;;;;;19.29;51.88;95222.97;4896036;29;20024;-82
2021/09/21 13:53:48;;;;;;;32.67;3.97;;;;;;;19.29;52.95;95221.16;4929680;29;20095;-81
2021/09/21 13:56:14;;;;;;;4.75;1.92;;;;;;;19.11;51.88;95207.16;4912372;29;20031;-85
2021/09/21 13:58:39;;;;;;;3.10;1.73;;;;;;;19.10;52.67;95216.91;4913809;29;20035;-85
2021/09/21 14:01:05;;;;;;;74.03;4.50;;;;;;;19.18;52.57;95224.47;4910245;29;20036;-82
2021/09/21 14:03:33;;;;;;;50.33;3.78;;;;;;;18.99;52.75;95230.72;4925302;29;20046;-79
2021/09/21 14:06:01;;;;;;;64.80;3.53;;;;;;;18.83;53.01;95203.19;4923679;29;20062;-82
2021/09/21 14:08:27;;;;;;;1.42;1.33;;;;;;;19.20;52.11;95226.91;4914783;29;20035;-78
2021/09/21 14:10:52;;;;;;;115.05;6.40;;;;;;;18.88;53.09;95218.28;4931505;29;20032;-80
2021/09/21 14:13:18;;;;;;;161.65;6.85;;;;;;;18.85;52.72;95218.72;4929413;29;20493;-82
2021/09/21 14:15:43;;;;;;;1.80;1.70;;;;;;;18.67;53.80;95200.28;4917501;29;20031;-86
2021/09/21 14:18:11;;;;;;;188.50;8.50;;;;;;;18.79;53.38;95209.88;4917406;29;20046;-83
2021/09/21 14:20:37;;;;;;;17.90;2.83;;;;;;;18.88;53.29;95211.22;4903757;29;20076;-80
2021/09/21 14:23:02;;;;;;;2.00;1.70;;;;;;;18.71;53.26;95196.22;4933808;29;20397;-85
2021/09/21 14:25:28;;;;;;;141.45;6.68;;;;;;;18.78;53.71;95191.75;4919004;29;20038;-77
2021/09/21 14:27:55;;;;;;;298.42;12.45;;;;;;;18.77;54.72;95216.38;4918619;29;20608;-77
2021/09/21 14:30:22;;;;;;;2.47;2.28;;;;;;;18.85;53.77;95219.53;4933148;29;20031;-80
2021/09/21 14:32:48;;;;;;;2.30;2.10;;;;;;;18.84;53.55;95223.19;4934600;29;20033;-75
2021/09/21 14:35:14;;;;;;;2.75;1.90;;;;;;;18.82;53.64;95219.94;4917396;29;20031;-87
2021/09/21 14:37:40;;;;;;;2.58;2.38;;;;;;;18.98;54.46;95226.47;4918700;29;20074;-82
2021/09/21 14:40:06;;;;;;;5.03;2.50;;;;;;;18.78;53.49;95223.25;4932739;29;20473;-76
2021/09/21 14:42:32;;;;;;;2.47;2.30;;;;;;;18.78;53.56;95224.00;4951461;29;20038;-84
2021/09/21 14:44:57;;;;;;;3.13;2.40;;;;;;;18.57;53.87;95239.31;4918315;29;20024;-80
2021/09/21 14:47:23;;;;;;;56.50;5.93;;;;;;;18.65;54.28;95228.59;4917674;29;20031;-84
2021/09/21 14:49:48;;;;;;;49.08;4.57;;;;;;;18.62;54.08;95231.63;4934471;29;20043;-82
2021/09/21 14:52:13;;;;;;;2.30;2.10;;;;;;;18.69;54.43;95240.25;4945850;29;20035;-80
2021/09/21 14:54:39;;;;;;;2.20;2.00;;;;;;;18.58;54.54;95236.50;4933478;29;20034;-81
2021/09/21 14:57:04;;;;;;;3.03;2.63;;;;;;;18.67;54.75;95234.41;4910908;29;20499;-83
2021/09/21 14:59:30;;;;;;;2.30;2.20;;;;;;;18.59;54.81;95232.06;4944850;28;20030;-79
2021/09/21 15:01:55;;;;;;;638.10;31.08;;;;;;;18.37;54.74;95226.31;4904852;29;20503;-76
2021/09/21 15:04:21;;;;;;;4.93;2.30;;;;;;;18.24;54.70;95216.69;4920461;29;20047;-81
2021/09/21 15:06:46;;;;;;;43.33;3.13;;;;;;;18.25;55.15;95233.25;4887663;29;20042;-81
2021/09/21 15:09:12;;;;;;;77.05;6.40;;;;;;;18.22;55.31;95231.06;4905174;29;20461;-80
2021/09/21 15:11:38;;;;;;;2.95;2.65;;;;;;;18.20;55.13;95226.03;4919742;29;20025;-79
2021/09/21 15:14:04;;;;;;;111.30;5.50;;;;;;;18.04;56.17;95229.16;4919393;29;20110;-78
2021/09/21 15:16:29;;;;;;;37.97;4.25;;;;;;;18.00;55.93;95233.19;4905200;29;20035;-78
2021/09/21 15:18:55;;;;;;;281.17;11.93;;;;;;;17.95;57.46;95238.25;4927293;29;20042;-81
2021/09/21 15:21:20;;;;;;;164.45;9.80;;;;;;;17.89;56.36;95229.41;4930926;29;20087;-80
2021/09/21 15:23:46;;;;;;;451.10;19.58;;;;;;;17.75;55.63;95248.81;4912509;29;20055;-80
2021/09/21 15:26:12;;;;;;;83.45;5.43;;;;;;;17.51;56.58;95249.47;4913653;29;20024;-75
2021/09/21 15:28:38;;;;;;;2.42;2.22;;;;;;;17.30;57.16;95258.41;4930697;29;20036;-77
2021/09/21 15:31:06;;;;;;;460.40;25.80;;;;;;;17.08;58.08;95246.53;4912463;29;20028;-76
2021/09/21 15:33:32;;;;;;;50.45;3.63;;;;;;;16.90;58.63;95253.38;4913927;29;20039;-82
2021/09/21 15:35:58;;;;;;;2.60;2.40;;;;;;;16.82;59.98;95262.25;4913158;29;20866;-77
2021/09/21 15:38:24;;;;;;;2.00;1.90;;;;;;;16.84;58.85;95266.28;4911205;29;20837;-80
2021/09/21 15:40:52;;;;;;;3.13;1.80;;;;;;;16.66;59.29;95246.97;4919259;29;20034;-84
2021/09/21 15:43:18;;;;;;;215.73;11.68;;;;;;;16.73;60.03;95279.13;4905370;29;20479;-76
2021/09/21 15:45:44;;;;;;;3.28;2.20;;;;;;;16.62;60.00;95277.13;4922253;29;20024;-80
2021/09/21 15:48:09;;;;;;;2.28;2.08;;;;;;;16.51;61.01;95285.50;4904391;29;20032;-82
2021/09/21 15:50:35;;;;;;;103.90;5.72;;;;;;;16.40;60.53;95273.03;4912206;29;20067;-83
2021/09/21 15:53:01;;;;;;;2.10;1.90;;;;;;;16.29;60.96;95290.09;4901388;29;20998;-81
2021/09/21 15:55:26;;;;;;;176.20;10.02;;;;;;;16.20;61.90;95302.56;4919577;29;20031;-79
2021/09/21 15:57:52;;;;;;;143.23;7.03;;;;;;;16.20;61.39;95299.94;4888492;29;20074;-76
2021/09/21 16:00:20;;;;;;;1.73;1.63;;;;;;;16.05;61.87;95301.91;4909089;29;20169;-79
2021/09/21 16:02:45;;;;;;;347.60;15.88;;;;;;;15.98;62.71;95306.28;4920947;29;20052;-80
2021/09/21 16:05:11;;;;;;;212.57;11.35;;;;;;;15.93;62.92;95308.66;4919507;29;20525;-78
2021/09/21 16:07:38;;;;;;;2.70;2.53;;;;;;;15.65;62.53;95281.81;4905463;29;20066;-78
2021/09/21 16:10:04;;;;;;;2.85;2.65;;;;;;;15.76;63.29;95310.00;4918641;29;20028;-78
2021/09/21 16:12:29;;;;;;;147.52;10.80;;;;;;;15.77;63.45;95320.25;4903503;29;20080;-79
2021/09/21 16:14:55;;;;;;;117.82;8.43;;;;;;;15.69;63.26;95312.59;4903684;29;20126;-78
2021/09/21 16:17:20;;;;;;;92.90;5.20;;;;;;;15.62;64.25;95321.38;4905535;29;20023;-80
2021/09/21 16:19:45;;;;;;;2.20;2.10;;;;;;;15.58;63.71;95314.91;4886977;29;20024;-83
2021/09/21 16:22:11;;;;;;;2.75;2.55;;;;;;;15.50;63.95;95317.69;4888606;29;20474;-78
2021/09/21 16:24:37;;;;;;;3.20;2.67;;;;;;;15.39;64.58;95315.56;4904473;29;20055;-79